Time;durP1;ratioP1;P1;durP2;ratioP2;P2;SDS_P1;SDS_P2;PMS_P1;PMS_P2;Temp;Humidity;BMP_temperature;BMP_pressure;BME280_temperature;BME280_humidity;BME280_pressure;Samples;Min_cycle;Max_cycle;Signal;HPM_P1;HPM_P2
2022/09/11 00:01:12;;;;;;;25.77;22.97;;;;;;;;;;5056168;28;20223;-74
2022/09/11 00:03:41;;;;;;;26.60;23.80;;;;;;;;;;5056173;28;20310;-75
2022/09/11 00:06:12;;;;;;;27.50;24.17;;;;;;;;;;5056649;28;20229;-75
2022/09/11 00:08:41;;;;;;;31.03;25.40;;;;;;;;;;5056283;28;20245;-74
2022/09/11 00:11:11;;;;;;;31.90;25.20;;;;;;;;;;5056249;28;20570;-74
2022/09/11 00:13:40;;;;;;;28.63;25.53;;;;;;;;;;5049943;28;20286;-74
2022/09/11 00:16:17;;;;;;;28.37;25.30;;;;;;;;;;5055824;28;20238;-75
2022/09/11 00:18:46;;;;;;;29.23;26.10;;;;;;;;;;5055886;28;20233;-75
2022/09/11 00:21:16;;;;;;;29.47;25.20;;;;;;;;;;5038854;28;20259;-75
2022/09/11 00:23:45;;;;;;;27.87;24.77;;;;;;;;;;5054998;28;20310;-75
2022/09/11 00:26:14;;;;;;;28.47;24.60;;;;;;;;;;5055930;28;20229;-74
2022/09/11 00:28:42;;;;;;;32.00;25.40;;;;;;;;;;5053113;28;20202;-74
2022/09/11 00:31:12;;;;;;;26.53;23.73;;;;;;;;;;5055475;28;20605;-75
2022/09/11 00:33:41;;;;;;;28.90;24.80;;;;;;;;;;5055147;28;20207;-75
2022/09/11 00:36:13;;;;;;;26.87;23.97;;;;;;;;;;5044771;28;20204;-75
2022/09/11 00:38:44;;;;;;;30.07;25.40;;;;;;;;;;5049920;28;20206;-75
2022/09/11 00:41:14;;;;;;;33.07;27.37;;;;;;;;;;5055102;28;20309;-74
2022/09/11 00:43:58;;;;;;;29.00;25.50;;;;;;;;;;5036175;28;20212;-74
2022/09/11 00:46:30;;;;;;;29.63;24.43;;;;;;;;;;5039248;28;20249;-74
2022/09/11 00:49:00;;;;;;;33.00;27.63;;;;;;;;;;5055305;28;20718;-74
2022/09/11 00:51:30;;;;;;;30.77;26.50;;;;;;;;;;5055956;28;20700;-74
2022/09/11 00:54:00;;;;;;;32.50;27.20;;;;;;;;;;5053419;28;20238;-74
2022/09/11 00:56:30;;;;;;;34.17;27.90;;;;;;;;;;5037531;28;20245;-76
2022/09/11 00:58:59;;;;;;;32.73;27.77;;;;;;;;;;5055127;28;20625;-74
2022/09/11 01:01:28;;;;;;;33.20;28.33;;;;;;;;;;5055281;28;20223;-74
2022/09/11 01:03:56;;;;;;;34.93;29.83;;;;;;;;;;5054533;28;20292;-75
2022/09/11 01:06:26;;;;;;;33.80;28.37;;;;;;;;;;5049669;28;20200;-74
2022/09/11 01:08:54;;;;;;;35.20;28.90;;;;;;;;;;5044266;28;20239;-75
2022/09/11 01:11:32;;;;;;;37.30;29.77;;;;;;;;;;5054840;28;20735;-74
2022/09/11 01:14:04;;;;;;;33.87;29.43;;;;;;;;;;5049344;28;20283;-75
2022/09/11 01:16:38;;;;;;;33.60;28.47;;;;;;;;;;5039589;28;20258;-75
2022/09/11 01:19:12;;;;;;;36.37;30.33;;;;;;;;;;5054456;28;20573;-74
2022/09/11 01:21:55;;;;;;;36.47;29.30;;;;;;;;;;5053179;28;20223;-75
2022/09/11 01:24:32;;;;;;;36.53;30.33;;;;;;;;;;5052793;28;20207;-75
2022/09/11 01:27:08;;;;;;;35.17;30.17;;;;;;;;;;5040183;28;20252;-75
2022/09/11 01:29:40;;;;;;;36.90;31.20;;;;;;;;;;5054220;28;20242;-74
2022/09/11 01:32:11;;;;;;;41.13;32.50;;;;;;;;;;5054587;28;20273;-75
2022/09/11 01:34:45;;;;;;;43.07;33.97;;;;;;;;;;5054161;28;20230;-75
2022/09/11 01:37:16;;;;;;;49.47;35.27;;;;;;;;;;5054224;28;20287;-74
2022/09/11 01:39:46;;;;;;;50.70;36.03;;;;;;;;;;5040441;28;20199;-75
2022/09/11 01:42:18;;;;;;;52.13;36.30;;;;;;;;;;5053897;28;20222;-75
2022/09/11 01:44:49;;;;;;;53.17;36.57;;;;;;;;;;5037055;28;20304;-75
2022/09/11 01:47:18;;;;;;;52.23;36.63;;;;;;;;;;5045798;28;20293;-75
2022/09/11 01:49:48;;;;;;;50.87;36.23;;;;;;;;;;5054440;28;20294;-75
2022/09/11 01:52:19;;;;;;;50.07;37.13;;;;;;;;;;5053662;28;20727;-75
2022/09/11 01:54:50;;;;;;;51.00;36.37;;;;;;;;;;5053326;28;20282;-74
2022/09/11 01:57:21;;;;;;;51.97;36.50;;;;;;;;;;5053590;28;20657;-75
2022/09/11 01:59:54;;;;;;;54.40;36.43;;;;;;;;;;5053604;28;20290;-75
2022/09/11 02:02:26;;;;;;;54.53;36.43;;;;;;;;;;5054161;28;20258;-75
2022/09/11 02:04:57;;;;;;;50.90;36.07;;;;;;;;;;5053602;28;20265;-74
2022/09/11 02:07:28;;;;;;;53.90;36.43;;;;;;;;;;5040014;28;20238;-75
2022/09/11 02:09:58;;;;;;;51.43;35.60;;;;;;;;;;5052555;28;20230;-75
2022/09/11 02:12:29;;;;;;;56.43;38.23;;;;;;;;;;5053735;28;20274;-74
2022/09/11 02:15:02;;;;;;;59.27;37.40;;;;;;;;;;5053826;28;20282;-74
2022/09/11 02:17:36;;;;;;;55.90;36.93;;;;;;;;;;5053197;28;20203;-74
2022/09/11 02:20:05;;;;;;;55.20;36.27;;;;;;;;;;5053244;28;20241;-74
2022/09/11 02:22:33;;;;;;;62.57;38.07;;;;;;;;;;5053526;28;20314;-75
2022/09/11 02:25:02;;;;;;;57.77;38.33;;;;;;;;;;5052839;28;20313;-75
2022/09/11 02:27:32;;;;;;;59.70;38.43;;;;;;;;;;5053114;28;20249;-75
2022/09/11 02:30:00;;;;;;;64.17;39.23;;;;;;;;;;5052899;28;20199;-74
2022/09/11 02:32:31;;;;;;;62.23;39.00;;;;;;;;;;5053108;28;20676;-75
2022/09/11 02:34:59;;;;;;;72.27;39.73;;;;;;;;;;5052650;28;20195;-74
2022/09/11 02:37:34;;;;;;;82.37;39.67;;;;;;;;;;5038170;28;20242;-74
2022/09/11 02:40:19;;;;;;;86.60;40.57;;;;;;;;;;5035540;28;20566;-75
2022/09/11 02:43:07;;;;;;;64.30;38.27;;;;;;;;;;5048336;28;20204;-74
2022/09/11 02:45:41;;;;;;;65.00;39.13;;;;;;;;;;5048475;28;20733;-75
2022/09/11 02:48:21;;;;;;;79.13;40.63;;;;;;;;;;5052640;28;20233;-75
2022/09/11 02:50:51;;;;;;;100.80;41.60;;;;;;;;;;5053255;28;20261;-75
2022/09/11 02:53:23;;;;;;;74.53;40.03;;;;;;;;;;5052852;28;20199;-74
2022/09/11 02:55:58;;;;;;;64.77;40.10;;;;;;;;;;5051354;28;20282;-74
2022/09/11 02:58:28;;;;;;;67.10;40.83;;;;;;;;;;5052130;28;20285;-74
2022/09/11 03:00:58;;;;;;;77.27;41.73;;;;;;;;;;5053074;28;20292;-74
2022/09/11 03:03:28;;;;;;;75.80;42.90;;;;;;;;;;5033930;28;20606;-75
2022/09/11 03:05:57;;;;;;;70.53;41.13;;;;;;;;;;5041752;28;20684;-75
2022/09/11 03:08:25;;;;;;;78.63;42.63;;;;;;;;;;5052801;28;20289;-75
2022/09/11 03:10:55;;;;;;;82.10;42.83;;;;;;;;;;5052774;28;20305;-75
2022/09/11 03:13:23;;;;;;;90.00;44.43;;;;;;;;;;5052692;28;20309;-75
2022/09/11 03:15:51;;;;;;;76.23;43.10;;;;;;;;;;5053157;28;20287;-75
2022/09/11 03:18:20;;;;;;;72.00;40.80;;;;;;;;;;5051559;28;20632;-75
2022/09/11 03:20:50;;;;;;;79.07;42.83;;;;;;;;;;5052792;28;20226;-74
2022/09/11 03:23:19;;;;;;;77.37;43.27;;;;;;;;;;5052855;28;20195;-74
2022/09/11 03:25:47;;;;;;;81.93;43.47;;;;;;;;;;5052458;28;20313;-75
2022/09/11 03:28:15;;;;;;;79.90;42.93;;;;;;;;;;5052506;28;20260;-74
2022/09/11 03:30:44;;;;;;;75.67;42.13;;;;;;;;;;5052578;28;20242;-75
2022/09/11 03:33:13;;;;;;;95.13;39.80;;;;;;;;;;5052647;28;20211;-74
2022/09/11 03:35:41;;;;;;;64.27;38.90;;;;;;;;;;5052541;28;20286;-75
2022/09/11 03:38:11;;;;;;;61.03;37.73;;;;;;;;;;5052116;28;20253;-74
2022/09/11 03:40:40;;;;;;;99.27;40.83;;;;;;;;;;5052511;28;20264;-75
2022/09/11 03:43:09;;;;;;;121.47;40.33;;;;;;;;;;5051786;28;20286;-75
2022/09/11 03:45:37;;;;;;;131.40;41.30;;;;;;;;;;5051753;28;20389;-75
2022/09/11 03:48:06;;;;;;;76.37;39.97;;;;;;;;;;5045283;28;20299;-75
2022/09/11 03:50:34;;;;;;;90.67;39.23;;;;;;;;;;5052659;28;20257;-75
2022/09/11 03:53:03;;;;;;;84.30;39.70;;;;;;;;;;5052372;28;20291;-75
2022/09/11 03:55:33;;;;;;;68.03;39.87;;;;;;;;;;5048857;28;20258;-75
2022/09/11 03:58:02;;;;;;;75.40;40.10;;;;;;;;;;5052451;28;20253;-74
2022/09/11 04:00:30;;;;;;;86.87;42.37;;;;;;;;;;5055835;28;20227;-75
2022/09/11 04:02:59;;;;;;;75.13;40.03;;;;;;;;;;5055924;28;20253;-75
2022/09/11 04:05:27;;;;;;;69.27;40.90;;;;;;;;;;5055551;28;20658;-75
2022/09/11 04:07:56;;;;;;;105.40;42.40;;;;;;;;;;5054605;28;20647;-75
2022/09/11 04:10:24;;;;;;;67.97;40.67;;;;;;;;;;5055564;28;20298;-75
2022/09/11 04:12:54;;;;;;;77.33;41.33;;;;;;;;;;5055328;28;20269;-75
2022/09/11 04:15:22;;;;;;;74.03;42.23;;;;;;;;;;5055333;28;20629;-75
2022/09/11 04:17:51;;;;;;;81.60;43.33;;;;;;;;;;5054890;28;20210;-74
2022/09/11 04:20:20;;;;;;;77.87;41.43;;;;;;;;;;5055683;28;20230;-75
2022/09/11 04:22:48;;;;;;;72.73;42.67;;;;;;;;;;5055567;28;20334;-75
2022/09/11 04:25:17;;;;;;;88.43;43.37;;;;;;;;;;5055051;28;20262;-74
2022/09/11 04:27:45;;;;;;;99.27;44.50;;;;;;;;;;5055003;28;20755;-74
2022/09/11 04:30:15;;;;;;;87.10;45.17;;;;;;;;;;5055625;28;20624;-75
2022/09/11 04:32:45;;;;;;;81.60;44.57;;;;;;;;;;5055068;28;20285;-74
2022/09/11 04:35:13;;;;;;;83.83;45.20;;;;;;;;;;5054917;28;20203;-75
2022/09/11 04:37:41;;;;;;;84.77;43.97;;;;;;;;;;5054398;28;20199;-75
2022/09/11 04:40:10;;;;;;;74.83;43.67;;;;;;;;;;5054948;28;20203;-75
2022/09/11 04:42:39;;;;;;;101.20;48.13;;;;;;;;;;5050911;28;20229;-75
2022/09/11 04:45:08;;;;;;;80.13;44.47;;;;;;;;;;5054632;28;20594;-75
2022/09/11 04:47:37;;;;;;;92.47;47.10;;;;;;;;;;5054475;28;20226;-75
2022/09/11 04:50:06;;;;;;;94.77;47.13;;;;;;;;;;5054817;28;20294;-75
2022/09/11 04:52:35;;;;;;;92.13;47.20;;;;;;;;;;5054940;28;20268;-75
2022/09/11 04:55:03;;;;;;;76.93;45.17;;;;;;;;;;5054848;28;20286;-75
2022/09/11 04:57:31;;;;;;;66.23;41.10;;;;;;;;;;5049341;28;20286;-75
2022/09/11 05:00:00;;;;;;;67.97;40.13;;;;;;;;;;5048683;28;20286;-75
2022/09/11 05:02:28;;;;;;;67.87;39.80;;;;;;;;;;5054329;28;20251;-75
2022/09/11 05:04:58;;;;;;;68.37;39.70;;;;;;;;;;5054347;28;20889;-75
2022/09/11 05:07:27;;;;;;;71.53;39.50;;;;;;;;;;5055169;28;20238;-75
2022/09/11 05:09:55;;;;;;;72.23;40.10;;;;;;;;;;5054059;28;20293;-76
2022/09/11 05:12:24;;;;;;;73.27;39.47;;;;;;;;;;5054218;28;20314;-76
2022/09/11 05:14:52;;;;;;;71.83;39.10;;;;;;;;;;5054360;28;20249;-75
2022/09/11 05:17:20;;;;;;;66.00;37.60;;;;;;;;;;5054451;28;20298;-75
2022/09/11 05:19:49;;;;;;;75.43;39.53;;;;;;;;;;5054738;28;20290;-75
2022/09/11 05:22:19;;;;;;;63.93;37.57;;;;;;;;;;5054663;28;20318;-75
2022/09/11 05:24:48;;;;;;;71.63;39.80;;;;;;;;;;5053883;28;20203;-75
2022/09/11 05:27:17;;;;;;;79.90;42.10;;;;;;;;;;5040330;28;20285;-75
2022/09/11 05:29:45;;;;;;;68.37;39.40;;;;;;;;;;5054311;28;20286;-75
2022/09/11 05:32:13;;;;;;;69.73;39.17;;;;;;;;;;5036249;28;20310;-75
2022/09/11 05:34:42;;;;;;;68.27;39.13;;;;;;;;;;5053456;28;20291;-75
2022/09/11 05:37:11;;;;;;;67.30;39.90;;;;;;;;;;5054209;28;20242;-75
2022/09/11 05:39:41;;;;;;;70.07;39.40;;;;;;;;;;5054136;28;20261;-75
2022/09/11 05:42:09;;;;;;;68.53;39.57;;;;;;;;;;5054335;28;20223;-75
2022/09/11 05:44:39;;;;;;;60.23;37.03;;;;;;;;;;5045525;28;20214;-75
2022/09/11 05:47:07;;;;;;;71.13;38.63;;;;;;;;;;5053906;28;20223;-74
2022/09/11 05:49:36;;;;;;;65.87;37.57;;;;;;;;;;5053532;28;20290;-75
2022/09/11 05:52:04;;;;;;;69.67;40.00;;;;;;;;;;5054191;28;20317;-75
2022/09/11 05:54:32;;;;;;;71.83;38.50;;;;;;;;;;5053490;28;20691;-75
2022/09/11 05:57:02;;;;;;;70.50;39.83;;;;;;;;;;5053884;28;20194;-75
2022/09/11 05:59:35;;;;;;;67.07;38.50;;;;;;;;;;5052311;28;20563;-75
2022/09/11 06:02:03;;;;;;;69.00;39.93;;;;;;;;;;5052034;28;20683;-75
2022/09/11 06:04:33;;;;;;;63.90;36.93;;;;;;;;;;5050751;28;20208;-75
2022/09/11 06:07:01;;;;;;;65.17;38.07;;;;;;;;;;5052620;28;20246;-75
2022/09/11 06:09:29;;;;;;;63.33;38.00;;;;;;;;;;5053503;28;20243;-75
2022/09/11 06:11:59;;;;;;;66.40;38.03;;;;;;;;;;5053648;28;20465;-75
2022/09/11 06:14:29;;;;;;;62.87;38.23;;;;;;;;;;5052653;28;20242;-75
2022/09/11 06:16:57;;;;;;;66.60;38.00;;;;;;;;;;5042140;28;20249;-75
2022/09/11 06:19:26;;;;;;;63.80;38.20;;;;;;;;;;5052757;28;20203;-75
2022/09/11 06:21:55;;;;;;;66.37;38.17;;;;;;;;;;5052781;28;20246;-75
2022/09/11 06:24:23;;;;;;;62.13;38.10;;;;;;;;;;5052991;28;20672;-75
2022/09/11 06:26:52;;;;;;;61.83;36.80;;;;;;;;;;5033742;28;20219;-75
2022/09/11 06:29:20;;;;;;;64.53;37.57;;;;;;;;;;5033918;28;20223;-75
2022/09/11 06:31:51;;;;;;;59.20;35.80;;;;;;;;;;5040857;28;20305;-75
2022/09/11 06:34:20;;;;;;;64.73;38.43;;;;;;;;;;5053216;28;20307;-75
2022/09/11 06:36:48;;;;;;;65.43;39.27;;;;;;;;;;5051783;28;20223;-75
2022/09/11 06:39:21;;;;;;;61.00;37.40;;;;;;;;;;5060858;28;20230;-75
2022/09/11 06:41:52;;;;;;;66.50;38.23;;;;;;;;;;5073571;28;20559;-75
2022/09/11 06:44:21;;;;;;;56.37;36.07;;;;;;;;;;5054605;28;20206;-75
2022/09/11 06:46:51;;;;;;;57.37;34.83;;;;;;;;;;5051150;28;20665;-75
2022/09/11 06:49:19;;;;;;;58.70;34.63;;;;;;;;;;5052907;28;20286;-75
2022/09/11 06:51:48;;;;;;;56.90;35.10;;;;;;;;;;5053402;28;20218;-75
2022/09/11 06:54:16;;;;;;;56.77;35.43;;;;;;;;;;5052599;28;20889;-75
2022/09/11 06:56:45;;;;;;;55.23;34.83;;;;;;;;;;5053921;28;20283;-74
2022/09/11 06:59:13;;;;;;;54.93;34.50;;;;;;;;;;5053194;28;20627;-75
2022/09/11 07:01:43;;;;;;;60.07;35.17;;;;;;;;;;5053347;28;20243;-75
2022/09/11 07:04:13;;;;;;;60.10;35.47;;;;;;;;;;5052899;28;20233;-74
2022/09/11 07:06:41;;;;;;;61.07;35.83;;;;;;;;;;5052489;28;20262;-75
2022/09/11 07:09:10;;;;;;;56.67;35.17;;;;;;;;;;5053586;28;20229;-75
2022/09/11 07:11:42;;;;;;;60.80;35.63;;;;;;;;;;5053722;28;20665;-75
2022/09/11 07:14:11;;;;;;;64.53;37.77;;;;;;;;;;5053468;28;20225;-75
2022/09/11 07:16:39;;;;;;;57.37;34.10;;;;;;;;;;5053222;28;20269;-75
2022/09/11 07:19:09;;;;;;;59.80;35.43;;;;;;;;;;5052534;28;20199;-75
2022/09/11 07:21:39;;;;;;;63.53;35.93;;;;;;;;;;5034877;28;20239;-75
2022/09/11 07:24:07;;;;;;;62.87;36.00;;;;;;;;;;5033237;28;20717;-75
2022/09/11 07:26:36;;;;;;;60.10;36.53;;;;;;;;;;5046795;28;20642;-75
2022/09/11 07:29:05;;;;;;;60.00;35.27;;;;;;;;;;5052182;28;20195;-75
2022/09/11 07:31:34;;;;;;;55.60;34.10;;;;;;;;;;5048542;28;20227;-75
2022/09/11 07:34:02;;;;;;;59.47;35.07;;;;;;;;;;5055862;28;20231;-75
2022/09/11 07:36:32;;;;;;;54.23;33.37;;;;;;;;;;5056282;28;20238;-75
2022/09/11 07:39:03;;;;;;;57.70;33.83;;;;;;;;;;5056904;28;20253;-74
2022/09/11 07:41:31;;;;;;;56.57;32.93;;;;;;;;;;5056945;28;20326;-75
2022/09/11 07:44:01;;;;;;;57.80;35.20;;;;;;;;;;5056545;28;20273;-75
2022/09/11 07:46:31;;;;;;;64.07;34.17;;;;;;;;;;5056556;28;20284;-75
2022/09/11 07:49:00;;;;;;;59.07;34.27;;;;;;;;;;5051693;28;20257;-75
2022/09/11 07:51:29;;;;;;;64.60;34.60;;;;;;;;;;5056536;28;20215;-75
2022/09/11 07:53:58;;;;;;;64.53;33.80;;;;;;;;;;5055949;28;20282;-75
2022/09/11 07:56:29;;;;;;;57.57;33.03;;;;;;;;;;5055154;28;20211;-75
2022/09/11 07:58:58;;;;;;;60.30;32.13;;;;;;;;;;5055514;28;20256;-75
2022/09/11 08:01:28;;;;;;;64.33;33.30;;;;;;;;;;5055109;28;20306;-75
2022/09/11 08:03:57;;;;;;;60.97;33.07;;;;;;;;;;5052430;28;20196;-75
2022/09/11 08:06:26;;;;;;;55.70;31.70;;;;;;;;;;5055976;28;20290;-75
2022/09/11 08:08:55;;;;;;;59.27;31.93;;;;;;;;;;5050524;28;20318;-75
2022/09/11 08:11:24;;;;;;;55.07;31.53;;;;;;;;;;5054693;28;20259;-75
2022/09/11 08:13:55;;;;;;;56.50;31.20;;;;;;;;;;5054766;28;20289;-76
2022/09/11 08:16:24;;;;;;;55.60;32.07;;;;;;;;;;5040875;28;20286;-75
2022/09/11 08:18:53;;;;;;;54.57;31.73;;;;;;;;;;5055559;28;20538;-76
2022/09/11 08:21:22;;;;;;;49.07;30.63;;;;;;;;;;5051687;28;20266;-75
2022/09/11 08:23:51;;;;;;;52.83;32.13;;;;;;;;;;5039349;28;20303;-76
2022/09/11 08:26:20;;;;;;;51.33;31.70;;;;;;;;;;5052310;28;20645;-75
2022/09/11 08:28:49;;;;;;;53.87;32.43;;;;;;;;;;5035591;28;20228;-76
2022/09/11 08:31:20;;;;;;;53.67;31.60;;;;;;;;;;5048057;28;20296;-75
2022/09/11 08:33:49;;;;;;;47.27;29.50;;;;;;;;;;5051417;28;20191;-75
2022/09/11 08:36:17;;;;;;;42.83;28.77;;;;;;;;;;5054700;28;20238;-75
2022/09/11 08:38:46;;;;;;;40.60;26.85;;;;;;;;;;5059533;28;20285;-75
2022/09/11 08:41:22;;;;;;;36.28;23.58;;;;;;;;;;5054984;28;20309;-75
2022/09/11 08:43:51;;;;;;;34.03;24.33;;;;;;;;;;5039736;28;20795;-75
2022/09/11 08:46:23;;;;;;;33.17;24.47;;;;;;;;;;5039250;28;20239;-75
2022/09/11 08:48:55;;;;;;;33.63;25.35;;;;;;;;;;5035270;28;20323;-76
2022/09/11 08:51:25;;;;;;;33.43;23.50;;;;;;;;;;5051663;28;20250;-75
2022/09/11 08:53:55;;;;;;;36.58;24.05;;;;;;;;;;5054111;28;20291;-75
2022/09/11 08:56:25;;;;;;;35.72;24.33;;;;;;;;;;5054039;28;20242;-75
2022/09/11 08:59:03;;;;;;;32.03;23.20;;;;;;;;;;5053185;28;20290;-75
2022/09/11 09:01:37;;;;;;;34.30;24.40;;;;;;;;;;5054010;28;20226;-75
2022/09/11 09:04:14;;;;;;;42.03;28.57;;;;;;;;;;5054064;28;20202;-76
2022/09/11 09:06:57;;;;;;;39.28;27.00;;;;;;;;;;5054165;28;20250;-77
2022/09/11 09:09:31;;;;;;;40.00;26.75;;;;;;;;;;5035002;28;20248;-75
2022/09/11 09:12:06;;;;;;;40.03;26.92;;;;;;;;;;5052088;28;20285;-74
2022/09/11 09:14:50;;;;;;;37.25;26.02;;;;;;;;;;5053982;28;20286;-75
2022/09/11 09:17:21;;;;;;;40.78;27.48;;;;;;;;;;5045266;28;20314;-75
2022/09/11 09:19:53;;;;;;;37.53;25.80;;;;;;;;;;5053757;28;20192;-75
2022/09/11 09:22:24;;;;;;;36.58;26.42;;;;;;;;;;5053865;28;20262;-75
2022/09/11 09:24:59;;;;;;;35.08;25.35;;;;;;;;;;5053997;28;20613;-76
2022/09/11 09:27:31;;;;;;;34.55;23.40;;;;;;;;;;5054072;28;20282;-75
2022/09/11 09:30:02;;;;;;;32.97;22.83;;;;;;;;;;5051510;28;20194;-75
2022/09/11 09:32:35;;;;;;;33.67;22.55;;;;;;;;;;5050146;28;20227;-74
2022/09/11 09:35:08;;;;;;;29.10;21.85;;;;;;;;;;5053952;28;20278;-74
2022/09/11 09:37:36;;;;;;;29.20;22.67;;;;;;;;;;5053928;28;20621;-75
2022/09/11 09:40:07;;;;;;;29.02;22.25;;;;;;;;;;5050539;28;20253;-75
2022/09/11 09:42:47;;;;;;;28.20;20.73;;;;;;;;;;5047272;28;20226;-75
2022/09/11 09:45:25;;;;;;;31.40;22.38;;;;;;;;;;5051967;28;20306;-75
2022/09/11 09:47:55;;;;;;;33.45;22.98;;;;;;;;;;5053082;28;20237;-75
2022/09/11 09:50:26;;;;;;;27.60;20.65;;;;;;;;;;5041070;28;20242;-75
2022/09/11 09:52:57;;;;;;;30.10;21.58;;;;;;;;;;5052617;28;20234;-75
2022/09/11 09:55:26;;;;;;;30.42;21.77;;;;;;;;;;4709573;28;9999938;-76
2022/09/11 09:57:55;;;;;;;26.50;21.10;;;;;;;;;;5057864;28;20211;-75
2022/09/11 10:00:23;;;;;;;25.83;19.50;;;;;;;;;;5052002;28;20282;-74
2022/09/11 10:02:52;;;;;;;27.85;20.50;;;;;;;;;;5052754;28;20677;-75
2022/09/11 10:05:25;;;;;;;26.95;19.52;;;;;;;;;;5033591;28;20216;-75
2022/09/11 10:07:55;;;;;;;26.00;19.67;;;;;;;;;;5041976;28;20286;-75
2022/09/11 10:10:28;;;;;;;24.35;18.63;;;;;;;;;;5036687;28;20265;-76
2022/09/11 10:12:58;;;;;;;25.20;18.65;;;;;;;;;;5052742;28;20619;-75
2022/09/11 10:15:48;;;;;;;25.63;20.40;;;;;;;;;;5039480;28;20219;-75
2022/09/11 10:18:36;;;;;;;27.80;20.52;;;;;;;;;;5050106;28;20278;-75
2022/09/11 10:21:23;;;;;;;25.25;18.42;;;;;;;;;;5047039;28;20219;-75
2022/09/11 10:23:53;;;;;;;24.48;18.80;;;;;;;;;;5045247;28;20199;-75
2022/09/11 10:26:24;;;;;;;25.52;18.70;;;;;;;;;;5033721;28;20207;-75
2022/09/11 10:28:53;;;;;;;26.90;19.63;;;;;;;;;;5050772;28;20250;-75
2022/09/11 10:31:22;;;;;;;25.17;19.17;;;;;;;;;;5052925;28;20250;-75
2022/09/11 10:33:55;;;;;;;27.52;19.33;;;;;;;;;;5049411;28;20209;-75
2022/09/11 10:36:26;;;;;;;28.48;20.05;;;;;;;;;;5051609;28;20257;-75
2022/09/11 10:38:56;;;;;;;28.58;20.88;;;;;;;;;;5053166;28;20199;-75
2022/09/11 10:41:25;;;;;;;34.00;23.27;;;;;;;;;;5033278;28;20273;-75
2022/09/11 10:43:57;;;;;;;30.98;23.27;;;;;;;;;;5046871;28;20278;-75
2022/09/11 10:46:28;;;;;;;35.45;23.88;;;;;;;;;;5036657;28;20249;-75
2022/09/11 10:48:57;;;;;;;35.13;22.90;;;;;;;;;;5049691;28;20229;-75
2022/09/11 10:51:28;;;;;;;40.20;25.08;;;;;;;;;;5052565;28;20222;-75
2022/09/11 10:54:04;;;;;;;35.15;24.70;;;;;;;;;;5048189;28;20203;-75
2022/09/11 10:56:34;;;;;;;37.05;24.88;;;;;;;;;;5033011;28;20231;-76
2022/09/11 10:59:05;;;;;;;37.33;24.60;;;;;;;;;;5043359;28;20231;-75
2022/09/11 11:01:33;;;;;;;35.17;23.85;;;;;;;;;;5052752;28;20309;-75
2022/09/11 11:04:02;;;;;;;36.28;24.77;;;;;;;;;;5047116;28;20215;-75
2022/09/11 11:06:39;;;;;;;37.38;25.00;;;;;;;;;;5046055;28;20298;-75
2022/09/11 11:09:34;;;;;;;36.17;24.73;;;;;;;;;;5055543;28;20229;-75
2022/09/11 11:12:13;;;;;;;35.20;23.83;;;;;;;;;;5031430;28;20284;-75
2022/09/11 11:14:50;;;;;;;33.22;23.92;;;;;;;;;;5052658;28;20227;-74
2022/09/11 11:17:23;;;;;;;32.40;22.67;;;;;;;;;;5056300;28;20631;-73
2022/09/11 11:19:59;;;;;;;34.85;24.20;;;;;;;;;;5056645;28;20286;-73
2022/09/11 11:22:39;;;;;;;30.58;23.13;;;;;;;;;;5054985;28;20707;-75
2022/09/11 11:25:13;;;;;;;28.20;21.85;;;;;;;;;;5052588;28;20358;-74
2022/09/11 11:28:00;;;;;;;29.35;21.25;;;;;;;;;;5055017;28;20235;-77
2022/09/11 11:30:31;;;;;;;26.13;21.00;;;;;;;;;;5041111;28;20292;-74
2022/09/11 11:33:05;;;;;;;26.63;19.92;;;;;;;;;;5056265;28;20287;-74
2022/09/11 11:35:38;;;;;;;26.33;18.98;;;;;;;;;;5045344;28;20245;-73
2022/09/11 11:38:10;;;;;;;24.55;18.55;;;;;;;;;;5042776;28;20670;-74
2022/09/11 11:40:41;;;;;;;26.70;18.73;;;;;;;;;;5053413;28;20606;-77
2022/09/11 11:43:12;;;;;;;26.80;19.42;;;;;;;;;;5055064;28;20286;-74
2022/09/11 11:45:43;;;;;;;23.15;17.58;;;;;;;;;;5056506;28;20274;-74
2022/09/11 11:48:15;;;;;;;16.70;13.40;;;;;;;;;;5054733;28;20211;-76
2022/09/11 11:50:46;;;;;;;17.40;14.10;;;;;;;;;;5056481;28;20651;-76
2022/09/11 11:53:20;;;;;;;14.63;11.50;;;;;;;;;;5055357;28;20286;-76
2022/09/11 11:55:54;;;;;;;17.02;14.48;;;;;;;;;;5055813;28;20278;-76
2022/09/11 11:58:27;;;;;;;15.52;13.45;;;;;;;;;;5044243;28;20655;-73
2022/09/11 12:00:58;;;;;;;18.25;14.25;;;;;;;;;;5055478;28;20305;-74
2022/09/11 12:03:28;;;;;;;15.55;13.00;;;;;;;;;;5054330;28;20286;-74
2022/09/11 12:05:57;;;;;;;13.80;11.93;;;;;;;;;;5055064;28;20199;-74
2022/09/11 12:08:27;;;;;;;13.68;12.18;;;;;;;;;;5042871;28;20333;-74
2022/09/11 12:10:56;;;;;;;14.18;11.82;;;;;;;;;;5055403;28;20277;-74
2022/09/11 12:13:29;;;;;;;13.10;10.40;;;;;;;;;;5054727;28;20199;-74
2022/09/11 12:16:13;;;;;;;11.02;9.88;;;;;;;;;;5053995;28;20290;-74
2022/09/11 12:18:43;;;;;;;13.20;11.15;;;;;;;;;;5042821;28;20203;-73
2022/09/11 12:21:30;;;;;;;11.82;10.25;;;;;;;;;;5054534;28;20227;-73
2022/09/11 12:24:19;;;;;;;13.35;11.45;;;;;;;;;;5055161;28;20214;-73
2022/09/11 12:26:47;;;;;;;12.45;10.73;;;;;;;;;;5042611;28;20227;-73
2022/09/11 12:29:48;;;;;;;12.38;11.15;;;;;;;;;;5049694;28;20222;-73
2022/09/11 12:32:24;;;;;;;11.50;10.30;;;;;;;;;;4993801;28;20312;-75
2022/09/11 12:34:58;;;;;;;12.57;10.32;;;;;;;;;;5045697;28;20310;-74
2022/09/11 12:37:31;;;;;;;11.93;9.88;;;;;;;;;;5054796;28;20205;-73
2022/09/11 12:40:06;;;;;;;14.77;10.20;;;;;;;;;;5055227;28;20179;-73
2022/09/11 12:42:48;;;;;;;10.50;8.45;;;;;;;;;;5054737;28;20215;-73
2022/09/11 12:45:34;;;;;;;10.52;8.25;;;;;;;;;;5054727;28;20610;-73
2022/09/11 12:48:04;;;;;;;10.20;8.77;;;;;;;;;;5054568;28;20210;-73
2022/09/11 12:50:32;;;;;;;10.32;8.05;;;;;;;;;;5054703;28;20317;-73
2022/09/11 12:53:02;;;;;;;10.00;8.02;;;;;;;;;;5054254;28;20238;-74
2022/09/11 12:55:38;;;;;;;11.82;9.43;;;;;;;;;;5038356;28;20624;-74
2022/09/11 12:58:23;;;;;;;12.52;9.15;;;;;;;;;;5052950;28;20211;-74
2022/09/11 13:01:00;;;;;;;11.90;8.68;;;;;;;;;;5040025;28;20224;-75
2022/09/11 13:03:30;;;;;;;13.18;9.13;;;;;;;;;;5037988;28;20306;-74
2022/09/11 13:06:00;;;;;;;11.50;9.90;;;;;;;;;;5041357;28;20246;-73
2022/09/11 13:08:30;;;;;;;16.35;13.40;;;;;;;;;;5041400;28;20234;-74
2022/09/11 13:11:13;;;;;;;17.05;14.25;;;;;;;;;;5054368;28;20227;-74
2022/09/11 13:13:45;;;;;;;19.58;15.10;;;;;;;;;;5053407;28;20199;-74
2022/09/11 13:16:23;;;;;;;19.52;15.32;;;;;;;;;;5053852;28;20199;-73
2022/09/11 13:18:52;;;;;;;20.67;15.85;;;;;;;;;;5053735;28;20203;-73
2022/09/11 13:21:21;;;;;;;17.83;15.18;;;;;;;;;;5054515;28;20731;-73
2022/09/11 13:23:55;;;;;;;18.00;16.02;;;;;;;;;;5053031;28;20661;-74
2022/09/11 13:26:26;;;;;;;20.05;15.00;;;;;;;;;;5052790;28;20219;-74
2022/09/11 13:28:57;;;;;;;19.90;16.67;;;;;;;;;;5033522;28;20242;-74
2022/09/11 13:31:30;;;;;;;20.20;17.00;;;;;;;;;;5035053;28;20259;-74
2022/09/11 13:33:58;;;;;;;24.35;17.77;;;;;;;;;;5048989;28;20214;-74
2022/09/11 13:36:27;;;;;;;20.60;17.08;;;;;;;;;;5053522;28;20203;-74
2022/09/11 13:38:59;;;;;;;21.95;17.67;;;;;;;;;;5053600;28;20211;-74
2022/09/11 13:41:29;;;;;;;21.45;17.75;;;;;;;;;;5053169;28;20302;-74
2022/09/11 13:43:59;;;;;;;21.83;18.13;;;;;;;;;;5052653;28;20246;-74
2022/09/11 13:46:30;;;;;;;23.55;17.73;;;;;;;;;;5053688;28;20299;-74
2022/09/11 13:49:00;;;;;;;22.20;18.10;;;;;;;;;;5054321;28;20233;-75
2022/09/11 13:51:30;;;;;;;21.65;17.90;;;;;;;;;;5053377;28;20280;-74
2022/09/11 13:54:10;;;;;;;20.67;18.23;;;;;;;;;;5053106;28;20199;-74
2022/09/11 13:56:45;;;;;;;20.05;16.83;;;;;;;;;;5044457;28;20203;-74
2022/09/11 13:59:41;;;;;;;19.55;15.73;;;;;;;;;;5033868;28;20199;-73
2022/09/11 14:02:33;;;;;;;16.45;14.68;;;;;;;;;;5037882;28;20314;-74
2022/09/11 14:05:09;;;;;;;15.90;14.10;;;;;;;;;;5037375;28;20199;-74
2022/09/11 14:07:44;;;;;;;17.10;14.70;;;;;;;;;;5052647;28;20305;-74
2022/09/11 14:10:18;;;;;;;17.65;15.75;;;;;;;;;;5045785;28;20313;-74
2022/09/11 14:12:48;;;;;;;13.68;12.23;;;;;;;;;;5052402;28;20237;-74
2022/09/11 14:15:21;;;;;;;16.10;12.20;;;;;;;;;;5053205;28;20246;-74
2022/09/11 14:17:49;;;;;;;13.90;11.82;;;;;;;;;;5052796;28;20301;-74
2022/09/11 14:20:21;;;;;;;13.13;11.43;;;;;;;;;;5052910;28;20203;-75
2022/09/11 14:22:53;;;;;;;14.38;11.57;;;;;;;;;;5053054;28;20290;-75
2022/09/11 14:25:23;;;;;;;12.82;11.00;;;;;;;;;;5053247;28;20640;-74
2022/09/11 14:27:52;;;;;;;13.60;10.80;;;;;;;;;;5052411;28;20234;-74
2022/09/11 14:30:24;;;;;;;14.25;11.77;;;;;;;;;;5053000;28;20302;-74
2022/09/11 14:33:10;;;;;;;13.98;11.57;;;;;;;;;;5041149;28;20242;-74
2022/09/11 14:35:40;;;;;;;12.27;10.98;;;;;;;;;;5040562;28;20256;-77
2022/09/11 14:38:10;;;;;;;12.88;10.40;;;;;;;;;;5053257;28;20298;-77
2022/09/11 14:40:41;;;;;;;14.07;11.25;;;;;;;;;;5052725;28;20230;-77